sensor_id;sensor_type;location;lat;lon;timestamp;temperature;humidity
9486;DHT22;4781;48.776;9.200;2022-11-24T00:01:27;7.50;99.90
9486;DHT22;4781;48.776;9.200;2022-11-24T00:04:00;7.40;99.90
9486;DHT22;4781;48.776;9.200;2022-11-24T00:06:32;7.50;99.90
9486;DHT22;4781;48.776;9.200;2022-11-24T00:09:03;7.40;99.90
9486;DHT22;4781;48.776;9.200;2022-11-24T00:11:34;7.50;99.90
9486;DHT22;4781;48.776;9.200;2022-11-24T00:14:05;7.50;99.90
9486;DHT22;4781;48.776;9.200;2022-11-24T00:16:36;7.50;99.90
9486;DHT22;4781;48.776;9.200;2022-11-24T00:19:07;7.60;99.90
9486;DHT22;4781;48.776;9.200;2022-11-24T00:21:36;7.50;99.90
9486;DHT22;4781;48.776;9.200;2022-11-24T00:24:06;7.60;99.90
9486;DHT22;4781;48.776;9.200;2022-11-24T00:26:35;7.60;99.90
9486;DHT22;4781;48.776;9.200;2022-11-24T00:29:06;7.60;99.90
9486;DHT22;4781;48.776;9.200;2022-11-24T00:31:41;7.60;99.90
9486;DHT22;4781;48.776;9.200;2022-11-24T00:34:10;7.60;99.90
9486;DHT22;4781;48.776;9.200;2022-11-24T00:36:40;7.60;99.90
9486;DHT22;4781;48.776;9.200;2022-11-24T00:39:13;7.60;99.90
9486;DHT22;4781;48.776;9.200;2022-11-24T00:41:43;7.70;99.90
9486;DHT22;4781;48.776;9.200;2022-11-24T00:44:11;7.70;99.90
9486;DHT22;4781;48.776;9.200;2022-11-24T00:46:39;7.70;99.90
9486;DHT22;4781;48.776;9.200;2022-11-24T00:49:08;7.70;99.90
9486;DHT22;4781;48.776;9.200;2022-11-24T00:51:37;7.70;99.90
9486;DHT22;4781;48.776;9.200;2022-11-24T00:54:05;7.70;99.90
9486;DHT22;4781;48.776;9.200;2022-11-24T00:56:33;7.70;99.90
9486;DHT22;4781;48.776;9.200;2022-11-24T00:59:02;7.70;99.90
9486;DHT22;4781;48.776;9.200;2022-11-24T01:01:30;7.70;99.90
9486;DHT22;4781;48.776;9.200;2022-11-24T01:04:00;7.70;99.90
9486;DHT22;4781;48.776;9.200;2022-11-24T01:06:29;7.60;99.90
9486;DHT22;4781;48.776;9.200;2022-11-24T01:08:59;7.50;99.90
9486;DHT22;4781;48.776;9.200;2022-11-24T01:11:31;7.50;99.90
9486;DHT22;4781;48.776;9.200;2022-11-24T01:14:19;7.40;99.90
9486;DHT22;4781;48.776;9.200;2022-11-24T01:16:49;7.50;99.90
9486;DHT22;4781;48.776;9.200;2022-11-24T01:19:17;7.50;99.90
9486;DHT22;4781;48.776;9.200;2022-11-24T01:21:46;7.40;99.90
9486;DHT22;4781;48.776;9.200;2022-11-24T01:24:14;7.40;99.90
9486;DHT22;4781;48.776;9.200;2022-11-24T01:26:43;7.40;99.90
9486;DHT22;4781;48.776;9.200;2022-11-24T01:29:11;7.40;99.90
9486;DHT22;4781;48.776;9.200;2022-11-24T01:31:40;7.50;99.90
9486;DHT22;4781;48.776;9.200;2022-11-24T01:34:08;7.50;99.90
9486;DHT22;4781;48.776;9.200;2022-11-24T01:36:38;7.40;99.90
9486;DHT22;4781;48.776;9.200;2022-11-24T01:39:06;7.50;99.90
9486;DHT22;4781;48.776;9.200;2022-11-24T01:41:35;7.50;99.90
9486;DHT22;4781;48.776;9.200;2022-11-24T01:44:21;7.50;99.90
9486;DHT22;4781;48.776;9.200;2022-11-24T01:47:05;7.50;99.90
9486;DHT22;4781;48.776;9.200;2022-11-24T01:49:47;7.50;99.90
9486;DHT22;4781;48.776;9.200;2022-11-24T01:52:32;7.50;99.90
9486;DHT22;4781;48.776;9.200;2022-11-24T01:55:05;7.60;99.90
9486;DHT22;4781;48.776;9.200;2022-11-24T01:57:40;7.60;99.90
9486;DHT22;4781;48.776;9.200;2022-11-24T02:00:12;7.70;99.90
9486;DHT22;4781;48.776;9.200;2022-11-24T02:02:42;7.70;99.90
9486;DHT22;4781;48.776;9.200;2022-11-24T02:05:20;7.70;99.90
9486;DHT22;4781;48.776;9.200;2022-11-24T02:07:56;7.80;99.90
9486;DHT22;4781;48.776;9.200;2022-11-24T02:10:26;7.80;99.90
9486;DHT22;4781;48.776;9.200;2022-11-24T02:12:56;7.80;99.90
9486;DHT22;4781;48.776;9.200;2022-11-24T02:15:26;7.80;99.90
9486;DHT22;4781;48.776;9.200;2022-11-24T02:17:55;7.80;99.90
9486;DHT22;4781;48.776;9.200;2022-11-24T02:20:25;7.80;99.90
9486;DHT22;4781;48.776;9.200;2022-11-24T02:23:07;7.80;99.90
9486;DHT22;4781;48.776;9.200;2022-11-24T02:25:55;7.80;99.90
9486;DHT22;4781;48.776;9.200;2022-11-24T02:28:25;7.80;99.90
9486;DHT22;4781;48.776;9.200;2022-11-24T02:30:56;7.80;99.90
9486;DHT22;4781;48.776;9.200;2022-11-24T02:33:26;7.80;99.90
9486;DHT22;4781;48.776;9.200;2022-11-24T02:35:55;7.80;99.90
9486;DHT22;4781;48.776;9.200;2022-11-24T02:38:30;7.90;99.90
9486;DHT22;4781;48.776;9.200;2022-11-24T02:41:02;7.90;99.90
9486;DHT22;4781;48.776;9.200;2022-11-24T02:43:36;7.90;99.90
9486;DHT22;4781;48.776;9.200;2022-11-24T02:46:06;7.90;99.90
9486;DHT22;4781;48.776;9.200;2022-11-24T02:48:37;7.90;99.90
9486;DHT22;4781;48.776;9.200;2022-11-24T02:51:05;7.90;99.90
9486;DHT22;4781;48.776;9.200;2022-11-24T02:53:34;7.90;99.90
9486;DHT22;4781;48.776;9.200;2022-11-24T02:56:02;7.80;99.90
9486;DHT22;4781;48.776;9.200;2022-11-24T02:58:31;7.80;99.90
9486;DHT22;4781;48.776;9.200;2022-11-24T03:00:59;7.80;99.90
9486;DHT22;4781;48.776;9.200;2022-11-24T03:03:29;7.70;99.90
9486;DHT22;4781;48.776;9.200;2022-11-24T03:05:57;7.70;99.90
9486;DHT22;4781;48.776;9.200;2022-11-24T03:08:26;7.60;99.90
9486;DHT22;4781;48.776;9.200;2022-11-24T03:10:54;7.50;99.90
9486;DHT22;4781;48.776;9.200;2022-11-24T03:13:22;7.50;99.90
9486;DHT22;4781;48.776;9.200;2022-11-24T03:15:51;7.50;99.90
9486;DHT22;4781;48.776;9.200;2022-11-24T03:18:19;7.40;99.90
9486;DHT22;4781;48.776;9.200;2022-11-24T03:20:47;7.40;99.90
9486;DHT22;4781;48.776;9.200;2022-11-24T03:23:16;7.40;99.90
9486;DHT22;4781;48.776;9.200;2022-11-24T03:25:44;7.30;99.90
9486;DHT22;4781;48.776;9.200;2022-11-24T03:28:14;7.30;99.90
9486;DHT22;4781;48.776;9.200;2022-11-24T03:30:56;7.30;99.90
9486;DHT22;4781;48.776;9.200;2022-11-24T03:33:26;7.20;99.90
9486;DHT22;4781;48.776;9.200;2022-11-24T03:35:57;7.20;99.90
9486;DHT22;4781;48.776;9.200;2022-11-24T03:38:25;7.20;99.90
9486;DHT22;4781;48.776;9.200;2022-11-24T03:40:53;7.10;99.90
9486;DHT22;4781;48.776;9.200;2022-11-24T03:43:22;7.10;99.90
9486;DHT22;4781;48.776;9.200;2022-11-24T03:45:50;7.10;99.90
9486;DHT22;4781;48.776;9.200;2022-11-24T03:48:18;7.10;99.90
9486;DHT22;4781;48.776;9.200;2022-11-24T03:50:59;7.10;99.90
9486;DHT22;4781;48.776;9.200;2022-11-24T03:53:30;7.10;99.90
9486;DHT22;4781;48.776;9.200;2022-11-24T03:55:59;7.10;99.90
9486;DHT22;4781;48.776;9.200;2022-11-24T03:58:28;7.10;99.90
9486;DHT22;4781;48.776;9.200;2022-11-24T04:00:57;6.90;99.90
9486;DHT22;4781;48.776;9.200;2022-11-24T04:03:25;7.10;99.90
9486;DHT22;4781;48.776;9.200;2022-11-24T04:05:54;7.10;99.90
9486;DHT22;4781;48.776;9.200;2022-11-24T04:08:22;7.00;99.90
9486;DHT22;4781;48.776;9.200;2022-11-24T04:10:52;7.10;99.90
9486;DHT22;4781;48.776;9.200;2022-11-24T04:13:23;7.00;99.90
9486;DHT22;4781;48.776;9.200;2022-11-24T04:16:18;7.10;99.90
9486;DHT22;4781;48.776;9.200;2022-11-24T04:18:46;7.10;99.90
9486;DHT22;4781;48.776;9.200;2022-11-24T04:21:14;7.10;99.90
9486;DHT22;4781;48.776;9.200;2022-11-24T04:23:43;7.10;99.90
9486;DHT22;4781;48.776;9.200;2022-11-24T04:26:11;7.10;99.90
9486;DHT22;4781;48.776;9.200;2022-11-24T04:28:40;7.00;99.90
9486;DHT22;4781;48.776;9.200;2022-11-24T04:31:08;7.00;99.90
9486;DHT22;4781;48.776;9.200;2022-11-24T04:33:37;7.00;99.90
9486;DHT22;4781;48.776;9.200;2022-11-24T04:36:06;7.00;99.90
9486;DHT22;4781;48.776;9.200;2022-11-24T04:38:35;7.00;99.90
9486;DHT22;4781;48.776;9.200;2022-11-24T04:41:03;7.00;99.90
9486;DHT22;4781;48.776;9.200;2022-11-24T04:43:32;7.00;99.90
9486;DHT22;4781;48.776;9.200;2022-11-24T04:46:01;7.10;99.90
9486;DHT22;4781;48.776;9.200;2022-11-24T04:48:29;7.10;99.90
9486;DHT22;4781;48.776;9.200;2022-11-24T04:50:58;7.10;99.90
9486;DHT22;4781;48.776;9.200;2022-11-24T04:53:29;7.10;99.90
9486;DHT22;4781;48.776;9.200;2022-11-24T04:55:58;7.10;99.90
9486;DHT22;4781;48.776;9.200;2022-11-24T04:58:26;7.00;99.90
9486;DHT22;4781;48.776;9.200;2022-11-24T05:00:54;7.10;99.90
9486;DHT22;4781;48.776;9.200;2022-11-24T05:03:23;7.10;99.90
9486;DHT22;4781;48.776;9.200;2022-11-24T05:05:51;7.10;99.90
9486;DHT22;4781;48.776;9.200;2022-11-24T05:08:20;7.10;99.90
9486;DHT22;4781;48.776;9.200;2022-11-24T05:10:48;7.00;99.90
9486;DHT22;4781;48.776;9.200;2022-11-24T05:13:16;7.10;99.90
9486;DHT22;4781;48.776;9.200;2022-11-24T05:15:45;7.00;99.90
9486;DHT22;4781;48.776;9.200;2022-11-24T05:18:14;7.00;99.90
9486;DHT22;4781;48.776;9.200;2022-11-24T05:20:45;7.00;99.90
9486;DHT22;4781;48.776;9.200;2022-11-24T05:23:15;7.00;99.90
9486;DHT22;4781;48.776;9.200;2022-11-24T05:25:44;7.00;99.90
9486;DHT22;4781;48.776;9.200;2022-11-24T05:28:12;7.00;99.90
9486;DHT22;4781;48.776;9.200;2022-11-24T05:30:41;7.00;99.90
9486;DHT22;4781;48.776;9.200;2022-11-24T05:33:14;7.00;99.90
9486;DHT22;4781;48.776;9.200;2022-11-24T05:39:20;6.90;99.90
9486;DHT22;4781;48.776;9.200;2022-11-24T05:42:11;6.90;99.90
9486;DHT22;4781;48.776;9.200;2022-11-24T05:44:58;6.90;99.90
9486;DHT22;4781;48.776;9.200;2022-11-24T05:47:27;6.90;99.90
9486;DHT22;4781;48.776;9.200;2022-11-24T05:49:55;6.90;99.90
9486;DHT22;4781;48.776;9.200;2022-11-24T05:52:23;6.90;99.90
9486;DHT22;4781;48.776;9.200;2022-11-24T05:54:53;6.90;99.90
9486;DHT22;4781;48.776;9.200;2022-11-24T05:57:21;7.00;99.90
9486;DHT22;4781;48.776;9.200;2022-11-24T05:59:50;6.90;99.90
9486;DHT22;4781;48.776;9.200;2022-11-24T06:02:18;7.00;99.90
9486;DHT22;4781;48.776;9.200;2022-11-24T06:04:47;7.00;99.90
9486;DHT22;4781;48.776;9.200;2022-11-24T06:07:15;7.00;99.90
9486;DHT22;4781;48.776;9.200;2022-11-24T06:09:44;7.00;99.90
9486;DHT22;4781;48.776;9.200;2022-11-24T06:12:13;7.00;99.90
9486;DHT22;4781;48.776;9.200;2022-11-24T06:14:53;7.00;99.90
9486;DHT22;4781;48.776;9.200;2022-11-24T06:17:15;7.00;99.90
9486;DHT22;4781;48.776;9.200;2022-11-24T06:19:43;7.00;99.90
9486;DHT22;4781;48.776;9.200;2022-11-24T06:22:13;7.00;99.90
9486;DHT22;4781;48.776;9.200;2022-11-24T06:24:45;7.10;99.90
9486;DHT22;4781;48.776;9.200;2022-11-24T06:27:21;7.10;99.90
9486;DHT22;4781;48.776;9.200;2022-11-24T06:29:50;7.10;99.90
9486;DHT22;4781;48.776;9.200;2022-11-24T06:32:19;7.10;99.90
9486;DHT22;4781;48.776;9.200;2022-11-24T06:34:47;7.10;99.90
9486;DHT22;4781;48.776;9.200;2022-11-24T06:37:16;7.00;99.90
9486;DHT22;4781;48.776;9.200;2022-11-24T06:39:45;7.00;99.90
9486;DHT22;4781;48.776;9.200;2022-11-24T06:42:15;7.00;99.90
9486;DHT22;4781;48.776;9.200;2022-11-24T06:44:46;7.00;99.90
9486;DHT22;4781;48.776;9.200;2022-11-24T06:47:17;7.10;99.90
9486;DHT22;4781;48.776;9.200;2022-11-24T06:53:09;7.10;99.90
9486;DHT22;4781;48.776;9.200;2022-11-24T06:55:39;7.20;99.90
9486;DHT22;4781;48.776;9.200;2022-11-24T06:58:07;7.20;99.90
9486;DHT22;4781;48.776;9.200;2022-11-24T07:00:37;7.20;99.90
9486;DHT22;4781;48.776;9.200;2022-11-24T07:03:15;7.20;99.90
9486;DHT22;4781;48.776;9.200;2022-11-24T07:05:45;7.20;99.90
9486;DHT22;4781;48.776;9.200;2022-11-24T07:08:13;7.30;99.90
9486;DHT22;4781;48.776;9.200;2022-11-24T07:10:42;7.30;99.90
9486;DHT22;4781;48.776;9.200;2022-11-24T07:13:11;7.30;99.90
9486;DHT22;4781;48.776;9.200;2022-11-24T07:15:39;7.40;99.90
9486;DHT22;4781;48.776;9.200;2022-11-24T07:18:07;7.40;99.90
9486;DHT22;4781;48.776;9.200;2022-11-24T07:20:42;7.40;99.90
9486;DHT22;4781;48.776;9.200;2022-11-24T07:23:10;7.40;99.90
9486;DHT22;4781;48.776;9.200;2022-11-24T07:25:39;7.50;99.90
9486;DHT22;4781;48.776;9.200;2022-11-24T07:28:08;7.50;99.90
9486;DHT22;4781;48.776;9.200;2022-11-24T07:30:36;7.50;99.90
9486;DHT22;4781;48.776;9.200;2022-11-24T07:33:06;7.50;99.90
9486;DHT22;4781;48.776;9.200;2022-11-24T07:35:37;7.50;99.90
9486;DHT22;4781;48.776;9.200;2022-11-24T07:38:05;7.50;99.90
9486;DHT22;4781;48.776;9.200;2022-11-24T07:40:34;7.50;99.90
9486;DHT22;4781;48.776;9.200;2022-11-24T07:43:02;7.50;99.90
9486;DHT22;4781;48.776;9.200;2022-11-24T07:45:30;7.50;99.90
9486;DHT22;4781;48.776;9.200;2022-11-24T07:47:59;7.40;99.90
9486;DHT22;4781;48.776;9.200;2022-11-24T07:50:27;7.40;99.90
9486;DHT22;4781;48.776;9.200;2022-11-24T07:53:01;7.40;99.90
9486;DHT22;4781;48.776;9.200;2022-11-24T07:55:29;7.40;99.90
9486;DHT22;4781;48.776;9.200;2022-11-24T07:57:59;7.40;99.90
9486;DHT22;4781;48.776;9.200;2022-11-24T08:00:28;7.40;99.90
9486;DHT22;4781;48.776;9.200;2022-11-24T08:02:56;7.40;99.90
9486;DHT22;4781;48.776;9.200;2022-11-24T08:05:25;7.40;99.90
9486;DHT22;4781;48.776;9.200;2022-11-24T08:07:53;7.40;99.90
9486;DHT22;4781;48.776;9.200;2022-11-24T08:10:21;7.40;99.90
9486;DHT22;4781;48.776;9.200;2022-11-24T08:12:50;7.40;99.90
9486;DHT22;4781;48.776;9.200;2022-11-24T08:15:18;7.40;99.90
9486;DHT22;4781;48.776;9.200;2022-11-24T08:17:47;7.40;99.90
9486;DHT22;4781;48.776;9.200;2022-11-24T08:20:15;7.40;99.90
9486;DHT22;4781;48.776;9.200;2022-11-24T08:22:45;7.40;99.90
9486;DHT22;4781;48.776;9.200;2022-11-24T08:25:13;7.40;99.90
9486;DHT22;4781;48.776;9.200;2022-11-24T08:27:43;7.40;99.90
9486;DHT22;4781;48.776;9.200;2022-11-24T08:30:12;7.40;99.90
9486;DHT22;4781;48.776;9.200;2022-11-24T08:32:40;7.40;99.90
9486;DHT22;4781;48.776;9.200;2022-11-24T08:35:09;7.40;99.90
9486;DHT22;4781;48.776;9.200;2022-11-24T08:37:37;7.40;99.90
9486;DHT22;4781;48.776;9.200;2022-11-24T08:40:06;7.40;99.90
9486;DHT22;4781;48.776;9.200;2022-11-24T08:42:35;7.40;99.90
9486;DHT22;4781;48.776;9.200;2022-11-24T08:45:04;7.40;99.90
9486;DHT22;4781;48.776;9.200;2022-11-24T08:47:32;7.40;99.90
9486;DHT22;4781;48.776;9.200;2022-11-24T08:50:01;7.40;99.90
9486;DHT22;4781;48.776;9.200;2022-11-24T08:52:29;7.40;99.90
9486;DHT22;4781;48.776;9.200;2022-11-24T08:54:58;7.40;99.90
9486;DHT22;4781;48.776;9.200;2022-11-24T08:57:26;7.40;99.90
9486;DHT22;4781;48.776;9.200;2022-11-24T08:59:55;7.40;99.90
9486;DHT22;4781;48.776;9.200;2022-11-24T09:02:23;7.40;99.90
9486;DHT22;4781;48.776;9.200;2022-11-24T09:04:51;7.40;99.90
9486;DHT22;4781;48.776;9.200;2022-11-24T09:07:20;7.40;99.90
9486;DHT22;4781;48.776;9.200;2022-11-24T09:09:48;7.40;99.90
9486;DHT22;4781;48.776;9.200;2022-11-24T09:12:16;7.40;99.90
9486;DHT22;4781;48.776;9.200;2022-11-24T09:14:45;7.40;99.90
9486;DHT22;4781;48.776;9.200;2022-11-24T09:17:13;7.40;99.90
9486;DHT22;4781;48.776;9.200;2022-11-24T09:19:41;7.50;99.90
9486;DHT22;4781;48.776;9.200;2022-11-24T09:22:10;7.50;99.90
9486;DHT22;4781;48.776;9.200;2022-11-24T09:24:38;7.50;99.90
9486;DHT22;4781;48.776;9.200;2022-11-24T09:27:07;7.60;99.90
9486;DHT22;4781;48.776;9.200;2022-11-24T09:29:35;7.60;99.90
9486;DHT22;4781;48.776;9.200;2022-11-24T09:32:03;7.60;99.90
9486;DHT22;4781;48.776;9.200;2022-11-24T09:34:32;7.60;99.90
9486;DHT22;4781;48.776;9.200;2022-11-24T09:37:00;7.60;99.90
9486;DHT22;4781;48.776;9.200;2022-11-24T09:39:29;7.60;99.90
9486;DHT22;4781;48.776;9.200;2022-11-24T09:42:18;7.60;99.90
9486;DHT22;4781;48.776;9.200;2022-11-24T09:48:20;7.60;99.90
9486;DHT22;4781;48.776;9.200;2022-11-24T09:50:48;7.60;99.90
9486;DHT22;4781;48.776;9.200;2022-11-24T09:53:42;7.60;99.90
9486;DHT22;4781;48.776;9.200;2022-11-24T09:56:20;7.60;99.90
9486;DHT22;4781;48.776;9.200;2022-11-24T09:59:01;7.60;99.90
9486;DHT22;4781;48.776;9.200;2022-11-24T10:01:35;7.60;99.90
9486;DHT22;4781;48.776;9.200;2022-11-24T10:04:15;7.70;99.90
9486;DHT22;4781;48.776;9.200;2022-11-24T10:06:50;7.70;99.90
9486;DHT22;4781;48.776;9.200;2022-11-24T10:15:57;7.80;99.90
9486;DHT22;4781;48.776;9.200;2022-11-24T10:26:57;8.30;99.90
9486;DHT22;4781;48.776;9.200;2022-11-24T10:29:38;8.40;99.90
9486;DHT22;4781;48.776;9.200;2022-11-24T10:32:54;8.40;99.90
9486;DHT22;4781;48.776;9.200;2022-11-24T10:34:47;8.40;99.90
9486;DHT22;4781;48.776;9.200;2022-11-24T10:37:27;8.40;99.90
9486;DHT22;4781;48.776;9.200;2022-11-24T10:42:53;8.40;99.90
9486;DHT22;4781;48.776;9.200;2022-11-24T10:45:22;8.40;99.90
9486;DHT22;4781;48.776;9.200;2022-11-24T10:47:52;8.50;99.90
9486;DHT22;4781;48.776;9.200;2022-11-24T10:50:25;8.50;99.90
9486;DHT22;4781;48.776;9.200;2022-11-24T10:53:01;8.60;99.90
9486;DHT22;4781;48.776;9.200;2022-11-24T10:55:57;8.70;99.90
9486;DHT22;4781;48.776;9.200;2022-11-24T10:58:31;9.00;99.90
9486;DHT22;4781;48.776;9.200;2022-11-24T11:01:30;9.30;99.90
9486;DHT22;4781;48.776;9.200;2022-11-24T11:03:59;9.30;99.90
9486;DHT22;4781;48.776;9.200;2022-11-24T11:06:31;9.30;99.90
9486;DHT22;4781;48.776;9.200;2022-11-24T11:11:43;9.10;99.90
9486;DHT22;4781;48.776;9.200;2022-11-24T11:14:33;9.10;99.90
9486;DHT22;4781;48.776;9.200;2022-11-24T11:16:57;9.10;99.90
9486;DHT22;4781;48.776;9.200;2022-11-24T11:19:37;9.10;99.90
9486;DHT22;4781;48.776;9.200;2022-11-24T11:24:44;9.10;99.90
9486;DHT22;4781;48.776;9.200;2022-11-24T11:27:21;9.10;99.90
9486;DHT22;4781;48.776;9.200;2022-11-24T11:29:51;9.30;99.90
9486;DHT22;4781;48.776;9.200;2022-11-24T11:32:25;9.20;99.90
9486;DHT22;4781;48.776;9.200;2022-11-24T11:34:55;9.30;99.90
9486;DHT22;4781;48.776;9.200;2022-11-24T11:37:27;9.30;99.90
9486;DHT22;4781;48.776;9.200;2022-11-24T11:39:57;9.40;99.90
9486;DHT22;4781;48.776;9.200;2022-11-24T11:45:30;9.60;99.90
9486;DHT22;4781;48.776;9.200;2022-11-24T11:50:51;9.60;99.90
9486;DHT22;4781;48.776;9.200;2022-11-24T11:53:42;9.50;99.90
9486;DHT22;4781;48.776;9.200;2022-11-24T11:56:33;9.50;99.90
9486;DHT22;4781;48.776;9.200;2022-11-24T11:59:34;9.50;99.90
9486;DHT22;4781;48.776;9.200;2022-11-24T12:02:37;9.40;99.90
9486;DHT22;4781;48.776;9.200;2022-11-24T12:05:28;9.40;99.90
9486;DHT22;4781;48.776;9.200;2022-11-24T12:11:28;9.30;99.90
9486;DHT22;4781;48.776;9.200;2022-11-24T12:14:22;9.30;99.90
9486;DHT22;4781;48.776;9.200;2022-11-24T12:17:03;9.20;99.90
9486;DHT22;4781;48.776;9.200;2022-11-24T12:19:37;9.30;99.90
9486;DHT22;4781;48.776;9.200;2022-11-24T12:22:16;9.30;99.90
9486;DHT22;4781;48.776;9.200;2022-11-24T12:30:47;9.60;99.90
9486;DHT22;4781;48.776;9.200;2022-11-24T12:34:22;9.70;99.90
9486;DHT22;4781;48.776;9.200;2022-11-24T12:42:19;9.80;99.90
9486;DHT22;4781;48.776;9.200;2022-11-24T12:53:48;9.90;99.90
9486;DHT22;4781;48.776;9.200;2022-11-24T12:56:22;9.90;99.90
9486;DHT22;4781;48.776;9.200;2022-11-24T12:59:19;9.90;99.90
9486;DHT22;4781;48.776;9.200;2022-11-24T13:05:07;10.00;99.90
9486;DHT22;4781;48.776;9.200;2022-11-24T13:07:38;10.00;99.90
9486;DHT22;4781;48.776;9.200;2022-11-24T13:13:03;10.10;99.90
9486;DHT22;4781;48.776;9.200;2022-11-24T13:21:33;10.20;99.90
9486;DHT22;4781;48.776;9.200;2022-11-24T13:24:23;10.20;99.90
9486;DHT22;4781;48.776;9.200;2022-11-24T13:27:17;10.30;99.90
9486;DHT22;4781;48.776;9.200;2022-11-24T13:29:46;10.30;99.90
9486;DHT22;4781;48.776;9.200;2022-11-24T13:34:53;10.40;99.90
9486;DHT22;4781;48.776;9.200;2022-11-24T13:40:36;10.30;99.90
9486;DHT22;4781;48.776;9.200;2022-11-24T13:53:47;10.40;99.90
9486;DHT22;4781;48.776;9.200;2022-11-24T13:58:55;10.30;99.90
9486;DHT22;4781;48.776;9.200;2022-11-24T14:01:31;10.30;99.90
9486;DHT22;4781;48.776;9.200;2022-11-24T14:04:19;10.20;99.90
9486;DHT22;4781;48.776;9.200;2022-11-24T14:06:54;10.10;99.90
9486;DHT22;4781;48.776;9.200;2022-11-24T14:09:49;10.10;99.90
9486;DHT22;4781;48.776;9.200;2022-11-24T14:12:16;10.00;99.90
9486;DHT22;4781;48.776;9.200;2022-11-24T14:14:48;10.00;99.90
9486;DHT22;4781;48.776;9.200;2022-11-24T14:17:20;10.00;99.90
9486;DHT22;4781;48.776;9.200;2022-11-24T14:19:52;10.00;99.90
9486;DHT22;4781;48.776;9.200;2022-11-24T14:22:41;10.00;99.90
9486;DHT22;4781;48.776;9.200;2022-11-24T14:25:27;10.00;99.90
9486;DHT22;4781;48.776;9.200;2022-11-24T14:28:23;9.90;99.90
9486;DHT22;4781;48.776;9.200;2022-11-24T14:31:17;9.90;99.90
9486;DHT22;4781;48.776;9.200;2022-11-24T14:33:42;9.90;99.90
9486;DHT22;4781;48.776;9.200;2022-11-24T14:36:14;9.90;99.90
9486;DHT22;4781;48.776;9.200;2022-11-24T14:38:43;9.80;99.90
9486;DHT22;4781;48.776;9.200;2022-11-24T14:41:26;9.80;99.90
9486;DHT22;4781;48.776;9.200;2022-11-24T14:44:13;9.90;99.90
9486;DHT22;4781;48.776;9.200;2022-11-24T14:46:46;9.80;99.90
9486;DHT22;4781;48.776;9.200;2022-11-24T14:49:19;9.80;99.90
9486;DHT22;4781;48.776;9.200;2022-11-24T14:51:54;9.80;99.90
9486;DHT22;4781;48.776;9.200;2022-11-24T14:54:24;9.70;99.90
9486;DHT22;4781;48.776;9.200;2022-11-24T14:57:05;9.70;99.90
9486;DHT22;4781;48.776;9.200;2022-11-24T14:59:37;9.70;99.90
9486;DHT22;4781;48.776;9.200;2022-11-24T15:05:11;9.70;99.90
9486;DHT22;4781;48.776;9.200;2022-11-24T15:07:47;9.70;99.90
9486;DHT22;4781;48.776;9.200;2022-11-24T15:13:16;9.70;99.90
9486;DHT22;4781;48.776;9.200;2022-11-24T15:15:45;9.70;99.90
9486;DHT22;4781;48.776;9.200;2022-11-24T15:18:29;9.70;99.90
9486;DHT22;4781;48.776;9.200;2022-11-24T15:20:54;9.60;99.90
9486;DHT22;4781;48.776;9.200;2022-11-24T15:23:33;9.60;99.90
9486;DHT22;4781;48.776;9.200;2022-11-24T15:28:35;9.60;99.90
9486;DHT22;4781;48.776;9.200;2022-11-24T15:31:07;9.60;99.90
9486;DHT22;4781;48.776;9.200;2022-11-24T15:33:39;9.50;99.90
9486;DHT22;4781;48.776;9.200;2022-11-24T15:36:08;9.40;99.90
9486;DHT22;4781;48.776;9.200;2022-11-24T15:38:38;9.40;99.90
9486;DHT22;4781;48.776;9.200;2022-11-24T15:41:19;9.40;99.90
9486;DHT22;4781;48.776;9.200;2022-11-24T15:43:46;9.40;99.90
9486;DHT22;4781;48.776;9.200;2022-11-24T15:46:14;9.30;99.90
9486;DHT22;4781;48.776;9.200;2022-11-24T15:48:43;9.30;99.90
9486;DHT22;4781;48.776;9.200;2022-11-24T15:51:12;9.20;99.90
9486;DHT22;4781;48.776;9.200;2022-11-24T15:53:55;9.20;99.90
9486;DHT22;4781;48.776;9.200;2022-11-24T15:56:29;9.10;99.90
9486;DHT22;4781;48.776;9.200;2022-11-24T15:59:00;8.90;99.90
9486;DHT22;4781;48.776;9.200;2022-11-24T16:01:32;8.80;99.90
9486;DHT22;4781;48.776;9.200;2022-11-24T16:04:01;8.80;99.90
9486;DHT22;4781;48.776;9.200;2022-11-24T16:06:30;8.80;99.90
9486;DHT22;4781;48.776;9.200;2022-11-24T16:08:58;8.70;99.90
9486;DHT22;4781;48.776;9.200;2022-11-24T16:11:27;8.70;99.90
9486;DHT22;4781;48.776;9.200;2022-11-24T16:13:55;8.70;99.90
9486;DHT22;4781;48.776;9.200;2022-11-24T16:16:23;8.60;99.90
9486;DHT22;4781;48.776;9.200;2022-11-24T16:18:52;8.60;99.90
9486;DHT22;4781;48.776;9.200;2022-11-24T16:21:20;8.50;99.90
9486;DHT22;4781;48.776;9.200;2022-11-24T16:23:49;8.40;99.90
9486;DHT22;4781;48.776;9.200;2022-11-24T16:26:17;8.30;99.90
9486;DHT22;4781;48.776;9.200;2022-11-24T16:28:45;8.10;99.90
9486;DHT22;4781;48.776;9.200;2022-11-24T16:31:14;8.10;99.90
9486;DHT22;4781;48.776;9.200;2022-11-24T16:33:46;8.10;99.90
9486;DHT22;4781;48.776;9.200;2022-11-24T16:36:15;8.00;99.90
9486;DHT22;4781;48.776;9.200;2022-11-24T16:38:43;8.10;99.90
9486;DHT22;4781;48.776;9.200;2022-11-24T16:41:12;8.00;99.90
9486;DHT22;4781;48.776;9.200;2022-11-24T16:43:41;8.00;99.90
9486;DHT22;4781;48.776;9.200;2022-11-24T16:46:23;8.00;99.90
9486;DHT22;4781;48.776;9.200;2022-11-24T16:48:52;8.00;99.90
9486;DHT22;4781;48.776;9.200;2022-11-24T16:51:22;8.00;99.90
9486;DHT22;4781;48.776;9.200;2022-11-24T16:54:01;8.00;99.90
9486;DHT22;4781;48.776;9.200;2022-11-24T16:56:30;7.90;99.90
9486;DHT22;4781;48.776;9.200;2022-11-24T16:58:58;7.90;99.90
9486;DHT22;4781;48.776;9.200;2022-11-24T17:01:27;7.90;99.90
9486;DHT22;4781;48.776;9.200;2022-11-24T17:03:55;7.90;99.90
9486;DHT22;4781;48.776;9.200;2022-11-24T17:06:24;7.80;99.90
9486;DHT22;4781;48.776;9.200;2022-11-24T17:08:54;7.80;99.90
9486;DHT22;4781;48.776;9.200;2022-11-24T17:11:24;7.80;99.90
9486;DHT22;4781;48.776;9.200;2022-11-24T17:13:55;7.80;99.90
9486;DHT22;4781;48.776;9.200;2022-11-24T17:16:25;7.80;99.90
9486;DHT22;4781;48.776;9.200;2022-11-24T17:18:53;7.70;99.90
9486;DHT22;4781;48.776;9.200;2022-11-24T17:21:25;7.70;99.90
9486;DHT22;4781;48.776;9.200;2022-11-24T17:23:55;7.60;99.90
9486;DHT22;4781;48.776;9.200;2022-11-24T17:26:28;7.60;99.90
9486;DHT22;4781;48.776;9.200;2022-11-24T17:28:57;7.60;99.90
9486;DHT22;4781;48.776;9.200;2022-11-24T17:31:27;7.60;99.90
9486;DHT22;4781;48.776;9.200;2022-11-24T17:33:59;7.60;99.90
9486;DHT22;4781;48.776;9.200;2022-11-24T17:36:30;7.50;99.90
9486;DHT22;4781;48.776;9.200;2022-11-24T17:39:00;7.40;99.90
9486;DHT22;4781;48.776;9.200;2022-11-24T17:41:30;7.40;99.90
9486;DHT22;4781;48.776;9.200;2022-11-24T17:43:59;7.40;99.90
9486;DHT22;4781;48.776;9.200;2022-11-24T17:46:29;7.40;99.90
9486;DHT22;4781;48.776;9.200;2022-11-24T17:48:57;7.30;99.90
9486;DHT22;4781;48.776;9.200;2022-11-24T17:51:26;7.30;99.90
9486;DHT22;4781;48.776;9.200;2022-11-24T17:53:55;7.20;99.90
9486;DHT22;4781;48.776;9.200;2022-11-24T17:56:25;7.30;99.90
9486;DHT22;4781;48.776;9.200;2022-11-24T17:58:55;7.30;99.90
9486;DHT22;4781;48.776;9.200;2022-11-24T18:01:25;7.20;99.90
9486;DHT22;4781;48.776;9.200;2022-11-24T18:03:55;7.20;99.90
9486;DHT22;4781;48.776;9.200;2022-11-24T18:06:25;7.20;99.90
9486;DHT22;4781;48.776;9.200;2022-11-24T18:08:55;7.10;99.90
9486;DHT22;4781;48.776;9.200;2022-11-24T18:11:27;7.10;99.90
9486;DHT22;4781;48.776;9.200;2022-11-24T18:13:58;7.00;99.90
9486;DHT22;4781;48.776;9.200;2022-11-24T18:16:30;6.90;99.90
9486;DHT22;4781;48.776;9.200;2022-11-24T18:19:01;6.80;99.90
9486;DHT22;4781;48.776;9.200;2022-11-24T18:21:31;6.80;99.90
9486;DHT22;4781;48.776;9.200;2022-11-24T18:23:59;6.70;99.90
9486;DHT22;4781;48.776;9.200;2022-11-24T18:26:28;6.60;99.90
9486;DHT22;4781;48.776;9.200;2022-11-24T18:28:56;6.60;99.90
9486;DHT22;4781;48.776;9.200;2022-11-24T18:31:24;6.60;99.90